Time;durP1;ratioP1;P1;durP2;ratioP2;P2;SDS_P1;SDS_P2;PMS_P1;PMS_P2;Temp;Humidity;BMP_temperature;BMP_pressure;BME280_temperature;BME280_humidity;BME280_pressure;Samples;Min_cycle;Max_cycle;Signal;HPM_P1;HPM_P2
2022/05/03 00:00:02;;;;;;;;;37.33;33.67;;;;;;;;5032336;28;45943;-82
2022/05/03 00:02:44;;;;;;;;;42.00;34.67;;;;;;;;5035772;28;45496;-80
2022/05/03 00:05:12;;;;;;;;;41.00;34.33;;;;;;;;5039583;28;45428;-81
2022/05/03 00:07:38;;;;;;;;;42.33;34.00;;;;;;;;5049658;28;45445;-80
2022/05/03 00:10:07;;;;;;;;;32.00;28.00;;;;;;;;5042552;28;45467;-82
2022/05/03 00:12:53;;;;;;;;;33.67;31.67;;;;;;;;5041817;28;45760;-78
2022/05/03 00:15:22;;;;;;;;;36.00;31.67;;;;;;;;5039504;28;45652;-80
2022/05/03 00:17:49;;;;;;;;;41.67;34.67;;;;;;;;5053670;28;45446;-81
2022/05/03 00:20:16;;;;;;;;;37.67;32.67;;;;;;;;5079484;28;45627;-80
2022/05/03 00:22:48;;;;;;;;;44.67;37.00;;;;;;;;5062779;28;45901;-81
2022/05/03 00:25:17;;;;;;;;;39.00;35.00;;;;;;;;5065367;28;45478;-81
2022/05/03 00:27:44;;;;;;;;;43.33;34.00;;;;;;;;5083963;28;45398;-80
2022/05/03 00:30:16;;;;;;;;;41.00;33.00;;;;;;;;5084033;28;45484;-82
2022/05/03 00:32:44;;;;;;;;;41.33;34.00;;;;;;;;5066460;28;45383;-81
2022/05/03 00:35:21;;;;;;;;;;;;;;;;;;;;;
2022/05/03 00:37:47;;;;;;;;;37.00;32.33;;;;;;;;5079295;28;68266;-81
2022/05/03 00:40:21;;;;;;;;;42.00;33.00;;;;;;;;5078813;28;45857;-82
2022/05/03 00:43:05;;;;;;;;;41.67;34.67;;;;;;;;5060524;28;46675;-83
2022/05/03 00:45:37;;;;;;;;;42.33;34.67;;;;;;;;5057153;28;45788;-80
2022/05/03 00:48:31;;;;;;;;;37.33;31.33;;;;;;;;5064340;28;45581;-80
2022/05/03 00:51:12;;;;;;;;;38.67;33.00;;;;;;;;5062024;28;45660;-81
2022/05/03 00:54:03;;;;;;;;;30.00;28.67;;;;;;;;5061504;28;45586;-83
2022/05/03 00:56:47;;;;;;;;;40.00;32.67;;;;;;;;5062719;28;45774;-83
2022/05/03 00:59:41;;;;;;;;;34.00;31.00;;;;;;;;5082443;27;45359;-82
2022/05/03 01:02:19;;;;;;;;;31.33;29.67;;;;;;;;5065769;28;45626;-81
2022/05/03 01:05:12;;;;;;;;;32.67;29.67;;;;;;;;5083605;28;45483;-81
2022/05/03 01:07:44;;;;;;;;;32.67;29.00;;;;;;;;5084205;28;45355;-81
2022/05/03 01:10:21;;;;;;;;;34.67;29.67;;;;;;;;5085639;28;45364;-81
2022/05/03 01:13:04;;;;;;;;;37.33;32.00;;;;;;;;5087050;28;47213;-81
2022/05/03 01:16:20;;;;;;;;;;;;;;;;;;;;;
2022/05/03 01:18:57;;;;;;;;;39.33;31.00;;;;;;;;5056550;28;72898;-83
2022/05/03 01:21:45;;;;;;;;;39.67;34.00;;;;;;;;5037660;28;45736;-82
2022/05/03 01:24:19;;;;;;;;;30.00;29.00;;;;;;;;5042206;28;45483;-83
2022/05/03 01:27:04;;;;;;;;;38.00;31.33;;;;;;;;5037703;28;46529;-81
2022/05/03 01:29:31;;;;;;;;;33.67;29.33;;;;;;;;5056748;28;45368;-81
2022/05/03 01:32:09;;;;;;;;;31.67;29.33;;;;;;;;5055765;28;45814;-83
2022/05/03 01:34:40;;;;;;;;;32.67;28.00;;;;;;;;5038198;28;45401;-81
2022/05/03 01:37:14;;;;;;;;;36.67;32.00;;;;;;;;5056008;28;45794;-82
2022/05/03 01:40:06;;;;;;;;;44.67;33.00;;;;;;;;5036269;28;45321;-82
2022/05/03 01:42:49;;;;;;;;;35.33;31.67;;;;;;;;5041408;28;45433;-81
2022/05/03 01:45:26;;;;;;;;;38.33;32.33;;;;;;;;5035680;28;45518;-82
2022/05/03 01:48:08;;;;;;;;;38.33;33.33;;;;;;;;5039117;28;45749;-81
2022/05/03 01:51:16;;;;;;;;;;;;;;;;;;;;;
2022/05/03 01:54:01;;;;;;;;;26.67;26.67;;;;;;;;5014752;28;68083;-80
2022/05/03 01:56:32;;;;;;;;;38.67;32.00;;;;;;;;5056221;28;45529;-80
2022/05/03 01:59:13;;;;;;;;;36.33;30.33;;;;;;;;5055943;28;45744;-82
2022/05/03 02:02:01;;;;;;;;;34.67;32.67;;;;;;;;5036791;28;45377;-83
2022/05/03 02:04:30;;;;;;;;;33.33;30.00;;;;;;;;5037070;28;45424;-79
2022/05/03 02:07:06;;;;;;;;;38.00;29.00;;;;;;;;5038275;28;46946;-81
2022/05/03 02:09:58;;;;;;;;;35.00;31.33;;;;;;;;5055165;28;45543;-81
2022/05/03 02:12:24;;;;;;;;;37.00;31.33;;;;;;;;5054012;28;45906;-82
2022/05/03 02:15:08;;;;;;;;;40.67;34.00;;;;;;;;5055037;28;45479;-82
2022/05/03 02:17:59;;;;;;;;;32.67;31.67;;;;;;;;5042170;28;46650;-81
2022/05/03 02:20:32;;;;;;;;;34.00;31.00;;;;;;;;5068821;28;45297;-81
2022/05/03 02:23:17;;;;;;;;;33.33;29.67;;;;;;;;5044457;28;45297;-81
2022/05/03 02:26:03;;;;;;;;;36.67;32.33;;;;;;;;5060912;28;45396;-80
2022/05/03 02:28:34;;;;;;;;;30.67;28.00;;;;;;;;5080309;28;45352;-80
2022/05/03 02:31:06;;;;;;;;;35.00;30.33;;;;;;;;5076554;28;45649;-80
2022/05/03 02:33:47;;;;;;;;;25.67;24.33;;;;;;;;5055567;28;45709;-81
2022/05/03 02:36:21;;;;;;;;;36.00;30.00;;;;;;;;5019099;28;45361;-80
2022/05/03 02:39:05;;;;;;;;;32.33;29.00;;;;;;;;5035539;28;45467;-80
2022/05/03 02:41:32;;;;;;;;;34.33;31.67;;;;;;;;5047666;28;45856;-82
2022/05/03 02:47:09;;;;;;;;;33.33;31.33;;;;;;;;5054680;28;45387;-81
2022/05/03 02:50:01;;;;;;;;;34.33;30.67;;;;;;;;5035195;28;45819;-79
2022/05/03 02:52:26;;;;;;;;;38.67;32.00;;;;;;;;5053333;28;45694;-81
2022/05/03 02:55:06;;;;;;;;;35.67;30.33;;;;;;;;5055614;28;45864;-77
2022/05/03 02:57:43;;;;;;;;;33.67;29.67;;;;;;;;5043688;28;45887;-81
2022/05/03 03:03:19;;;;;;;;;34.67;31.00;;;;;;;;5079554;28;45539;-81
2022/05/03 03:05:49;;;;;;;;;37.67;33.33;;;;;;;;5062798;28;45387;-81
2022/05/03 03:08:20;;;;;;;;;37.67;31.67;;;;;;;;5051353;28;45457;-80
2022/05/03 03:11:07;;;;;;;;;41.00;34.67;;;;;;;;5037959;28;45562;-80
2022/05/03 03:13:48;;;;;;;;;35.00;30.00;;;;;;;;5037461;28;45419;-79
2022/05/03 03:16:17;;;;;;;;;39.00;31.67;;;;;;;;5054221;28;45774;-80
2022/05/03 03:18:47;;;;;;;;;30.00;28.33;;;;;;;;5054179;28;45625;-81
2022/05/03 03:21:15;;;;;;;;;32.00;29.00;;;;;;;;5061724;28;44822;-81
2022/05/03 03:23:41;;;;;;;;;29.00;24.67;;;;;;;;5072748;28;45475;-81
2022/05/03 03:26:07;;;;;;;;;34.00;30.33;;;;;;;;5063970;28;45553;-81
2022/05/03 03:28:40;;;;;;;;;34.67;29.00;;;;;;;;5055719;28;45594;-82
2022/05/03 03:31:07;;;;;;;;;35.67;30.67;;;;;;;;5037288;28;45751;-80
2022/05/03 03:33:34;;;;;;;;;41.33;33.33;;;;;;;;5053452;28;45765;-79
2022/05/03 03:36:01;;;;;;;;;37.33;32.67;;;;;;;;5055759;28;45736;-80
2022/05/03 03:38:30;;;;;;;;;36.00;32.00;;;;;;;;5047864;28;45961;-80
2022/05/03 03:40:58;;;;;;;;;39.33;32.00;;;;;;;;5045905;28;45705;-81
2022/05/03 03:43:23;;;;;;;;;30.00;27.67;;;;;;;;5053012;28;47165;-82
2022/05/03 03:45:51;;;;;;;;;30.67;29.00;;;;;;;;5055527;28;45750;-80
2022/05/03 03:48:17;;;;;;;;;36.33;29.33;;;;;;;;5055689;28;45865;-81
2022/05/03 03:50:43;;;;;;;;;34.33;30.67;;;;;;;;5055323;28;45497;-82
2022/05/03 03:53:09;;;;;;;;;36.67;32.33;;;;;;;;5037991;28;47056;-82
2022/05/03 03:55:35;;;;;;;;;35.33;30.00;;;;;;;;5055101;28;45503;-82
2022/05/03 03:58:01;;;;;;;;;35.00;30.67;;;;;;;;5025172;28;45892;-81
2022/05/03 04:00:26;;;;;;;;;34.33;31.00;;;;;;;;5014574;28;45661;-80
2022/05/03 04:02:52;;;;;;;;;39.33;31.67;;;;;;;;5035019;28;47190;-83
2022/05/03 04:05:18;;;;;;;;;32.33;29.67;;;;;;;;5015426;28;45945;-82
2022/05/03 04:07:45;;;;;;;;;37.67;31.33;;;;;;;;5016939;28;45368;-79
2022/05/03 04:10:10;;;;;;;;;36.00;31.00;;;;;;;;5036967;28;45427;-81
2022/05/03 04:12:36;;;;;;;;;43.00;32.67;;;;;;;;5051609;28;45476;-81
2022/05/03 04:15:01;;;;;;;;;37.00;31.33;;;;;;;;5055840;28;45371;-77
2022/05/03 04:17:26;;;;;;;;;34.33;28.33;;;;;;;;5051542;28;45890;-78
2022/05/03 04:19:52;;;;;;;;;29.00;28.33;;;;;;;;5048954;28;47303;-77
2022/05/03 04:22:24;;;;;;;;;34.00;31.00;;;;;;;;5053352;28;45729;-79
2022/05/03 04:24:50;;;;;;;;;34.67;28.00;;;;;;;;5029842;28;45323;-80
2022/05/03 04:27:15;;;;;;;;;41.33;33.33;;;;;;;;5041682;28;45371;-79
2022/05/03 04:29:40;;;;;;;;;36.33;28.33;;;;;;;;5051550;28;45479;-79
2022/05/03 04:32:08;;;;;;;;;33.00;30.67;;;;;;;;5046324;28;46960;-82
2022/05/03 04:34:36;;;;;;;;;40.33;32.00;;;;;;;;5052037;28;45470;-82
2022/05/03 04:37:16;;;;;;;;;49.25;39.50;;;;;;;;5055431;28;45442;-82
2022/05/03 04:39:42;;;;;;;;;32.00;26.67;;;;;;;;5066411;28;45488;-81
2022/05/03 04:42:08;;;;;;;;;33.67;31.33;;;;;;;;5022048;28;45642;-83
2022/05/03 04:44:37;;;;;;;;;38.33;33.67;;;;;;;;5030450;28;45459;-82
2022/05/03 04:47:13;;;;;;;;;41.67;35.33;;;;;;;;5038870;28;45645;-84
2022/05/03 04:49:40;;;;;;;;;41.33;34.33;;;;;;;;5058545;28;45672;-84
2022/05/03 04:52:06;;;;;;;;;33.33;31.33;;;;;;;;5029937;28;45571;-82
2022/05/03 04:54:34;;;;;;;;;36.67;29.67;;;;;;;;5040382;28;45391;-82
2022/05/03 04:57:05;;;;;;;;;37.67;31.67;;;;;;;;5041377;28;45451;-81
2022/05/03 04:59:31;;;;;;;;;35.33;31.67;;;;;;;;5030706;28;46339;-83
2022/05/03 05:01:58;;;;;;;;;43.00;35.67;;;;;;;;5059928;28;46985;-82
2022/05/03 05:04:44;;;;;;;;;37.33;33.67;;;;;;;;5058077;28;45315;-79
2022/05/03 05:07:10;;;;;;;;;43.00;37.33;;;;;;;;5045471;28;45391;-79
2022/05/03 05:09:36;;;;;;;;;49.33;37.00;;;;;;;;5043474;28;46036;-78
2022/05/03 05:12:02;;;;;;;;;41.67;34.67;;;;;;;;5041022;28;46706;-78
2022/05/03 05:14:31;;;;;;;;;45.00;31.67;;;;;;;;5057223;28;45314;-81
2022/05/03 05:17:03;;;;;;;;;41.00;33.67;;;;;;;;5055861;28;45806;-81
2022/05/03 05:19:32;;;;;;;;;45.67;37.00;;;;;;;;5024541;28;45843;-78
2022/05/03 05:22:16;;;;;;;;;38.33;33.67;;;;;;;;5038165;28;46345;-78
2022/05/03 05:24:42;;;;;;;;;45.67;39.00;;;;;;;;5060900;28;45398;-82
2022/05/03 05:27:07;;;;;;;;;43.00;31.33;;;;;;;;5044148;28;45498;-84
2022/05/03 05:29:33;;;;;;;;;44.00;33.33;;;;;;;;5044148;28;45775;-85
2022/05/03 05:31:59;;;;;;;;;38.67;32.67;;;;;;;;5060943;28;46322;-82
2022/05/03 05:34:24;;;;;;;;;44.67;36.67;;;;;;;;5061913;28;45731;-79
2022/05/03 05:36:49;;;;;;;;;48.67;35.67;;;;;;;;5061450;28;45809;-79
2022/05/03 05:39:15;;;;;;;;;38.00;32.33;;;;;;;;5051492;28;46117;-82
2022/05/03 05:41:40;;;;;;;;;41.33;35.67;;;;;;;;5049718;28;46136;-80
2022/05/03 05:44:06;;;;;;;;;34.00;31.67;;;;;;;;5043384;28;45874;-80
2022/05/03 05:46:31;;;;;;;;;36.67;33.33;;;;;;;;5044702;28;46227;-78
2022/05/03 05:48:56;;;;;;;;;49.00;37.33;;;;;;;;5042213;28;45494;-79
2022/05/03 05:51:22;;;;;;;;;30.67;28.33;;;;;;;;5043384;28;48364;-82
2022/05/03 05:54:01;;;;;;;;;44.33;37.00;;;;;;;;5060216;28;45754;-85
2022/05/03 06:09:26;;;;;;;;;31.67;30.67;;;;;;;;4955576;28;45948;-84
2022/05/03 06:12:54;;;;;;;;;;;;;;;;;;;;;
2022/05/03 06:18:06;;;;;;;;;33.00;27.33;;;;;;;;5032603;28;45497;-78
2022/05/03 06:20:44;;;;;;;;;30.00;26.33;;;;;;;;5042034;28;45935;-79
2022/05/03 06:23:15;;;;;;;;;31.33;28.00;;;;;;;;5028126;28;46237;-80
2022/05/03 06:25:47;;;;;;;;;28.33;27.00;;;;;;;;5032500;28;45965;-79
2022/05/03 06:28:12;;;;;;;;;25.33;24.00;;;;;;;;5058183;28;45478;-78
2022/05/03 06:30:46;;;;;;;;;38.67;33.33;;;;;;;;5058349;28;45463;-79
2022/05/03 06:37:09;;;;;;;;;29.67;24.67;;;;;;;;4984445;28;45772;-84
2022/05/03 06:39:36;;;;;;;;;27.00;25.00;;;;;;;;4968223;28;45504;-76
2022/05/03 06:42:05;;;;;;;;;31.33;27.33;;;;;;;;4971682;28;45797;-81
2022/05/03 06:44:30;;;;;;;;;27.00;27.00;;;;;;;;4970002;28;45827;-79
2022/05/03 06:46:55;;;;;;;;;32.00;29.00;;;;;;;;4987216;28;46113;-79
2022/05/03 06:49:21;;;;;;;;;33.00;28.67;;;;;;;;5051638;28;45462;-77
2022/05/03 06:51:46;;;;;;;;;35.00;24.33;;;;;;;;5051565;28;45407;-79
2022/05/03 06:54:12;;;;;;;;;27.33;24.33;;;;;;;;5035974;28;47033;-79
2022/05/03 06:56:37;;;;;;;;;31.00;23.67;;;;;;;;5052339;28;46169;-80
2022/05/03 06:59:03;;;;;;;;;35.33;31.00;;;;;;;;5047981;28;45775;-79
2022/05/03 07:01:30;;;;;;;;;33.67;28.33;;;;;;;;5052628;28;45429;-82
2022/05/03 07:03:55;;;;;;;;;28.67;26.00;;;;;;;;5037348;28;46068;-74
2022/05/03 07:06:21;;;;;;;;;28.00;25.67;;;;;;;;5053645;28;45470;-76
2022/05/03 07:08:48;;;;;;;;;29.67;26.33;;;;;;;;5057864;28;45478;-79
2022/05/03 07:11:15;;;;;;;;;34.67;29.00;;;;;;;;5051895;28;45534;-78
2022/05/03 07:13:40;;;;;;;;;26.33;25.00;;;;;;;;5060780;28;45516;-78
2022/05/03 07:16:07;;;;;;;;;28.00;25.00;;;;;;;;5058063;28;45135;-80
2022/05/03 07:24:00;;;;;;;;;30.33;27.33;;;;;;;;5056518;28;45402;-80
2022/05/03 07:26:26;;;;;;;;;25.33;22.00;;;;;;;;5049911;28;46163;-75
2022/05/03 07:28:53;;;;;;;;;27.00;25.00;;;;;;;;5049890;28;45340;-77
2022/05/03 07:31:21;;;;;;;;;34.00;26.67;;;;;;;;5056556;28;45430;-80
2022/05/03 07:33:47;;;;;;;;;31.67;25.67;;;;;;;;5049177;28;46246;-79
2022/05/03 07:36:14;;;;;;;;;40.00;32.00;;;;;;;;5051060;28;45707;-77
2022/05/03 07:38:40;;;;;;;;;22.67;21.33;;;;;;;;5051031;28;45591;-76
2022/05/03 07:41:06;;;;;;;;;23.00;20.00;;;;;;;;5050884;28;45646;-75
2022/05/03 07:43:32;;;;;;;;;27.33;23.00;;;;;;;;5045596;28;45528;-75
2022/05/03 07:45:57;;;;;;;;;31.00;27.33;;;;;;;;5048138;28;46419;-75
2022/05/03 07:48:22;;;;;;;;;24.67;21.00;;;;;;;;5038556;28;45446;-75
2022/05/03 07:50:48;;;;;;;;;29.33;26.67;;;;;;;;5051008;28;45905;-77
2022/05/03 07:53:14;;;;;;;;;29.67;23.00;;;;;;;;5053941;28;45505;-76
2022/05/03 07:55:40;;;;;;;;;29.33;25.33;;;;;;;;5059153;28;46353;-78
2022/05/03 07:58:05;;;;;;;;;21.33;20.33;;;;;;;;5052591;28;45796;-78
2022/05/03 08:00:31;;;;;;;;;27.00;22.67;;;;;;;;5054813;28;44805;-78
2022/05/03 08:02:57;;;;;;;;;22.67;19.67;;;;;;;;5046244;28;45987;-78
2022/05/03 08:05:23;;;;;;;;;26.00;21.33;;;;;;;;5054984;28;45537;-79
2022/05/03 08:07:49;;;;;;;;;34.33;27.00;;;;;;;;5034566;28;45869;-79
2022/05/03 08:10:14;;;;;;;;;26.00;19.67;;;;;;;;5054374;28;45308;-78
2022/05/03 08:12:40;;;;;;;;;25.00;22.00;;;;;;;;5052442;28;45337;-79
2022/05/03 08:15:05;;;;;;;;;30.00;24.67;;;;;;;;5051232;28;45359;-76
2022/05/03 08:17:38;;;;;;;;;25.33;22.00;;;;;;;;5056197;28;45685;-80
2022/05/03 08:20:04;;;;;;;;;25.67;23.67;;;;;;;;5067174;28;45480;-79
2022/05/03 08:22:51;;;;;;;;;24.67;23.33;;;;;;;;5061629;28;45384;-79
2022/05/03 08:25:54;;;;;;;;;26.00;21.67;;;;;;;;5054513;28;46338;-75
2022/05/03 08:28:20;;;;;;;;;26.67;26.67;;;;;;;;5042558;28;45364;-76
2022/05/03 08:30:49;;;;;;;;;27.33;23.67;;;;;;;;5065563;28;45314;-75
2022/05/03 08:33:20;;;;;;;;;26.33;24.00;;;;;;;;5067495;28;45825;-76
2022/05/03 08:35:50;;;;;;;;;34.67;30.33;;;;;;;;5062865;28;45358;-75
2022/05/03 08:43:50;;;;;;;;;27.67;23.67;;;;;;;;5070892;28;45545;-81
2022/05/03 08:46:20;;;;;;;;;25.33;23.33;;;;;;;;5066770;28;45437;-79
2022/05/03 08:48:52;;;;;;;;;24.00;21.67;;;;;;;;5066751;28;45452;-78
2022/05/03 08:51:23;;;;;;;;;33.67;28.67;;;;;;;;5070557;28;46045;-77
2022/05/03 08:54:14;;;;;;;;;26.00;21.00;;;;;;;;5068069;28;45403;-81
2022/05/03 08:56:45;;;;;;;;;24.33;23.00;;;;;;;;5054803;28;45418;-79
2022/05/03 08:59:14;;;;;;;;;32.33;23.67;;;;;;;;5048878;28;45749;-79
2022/05/03 09:01:48;;;;;;;;;25.00;20.67;;;;;;;;5064875;28;45875;-78
2022/05/03 09:04:36;;;;;;;;;28.67;25.00;;;;;;;;5065422;28;45509;-82
2022/05/03 09:07:45;;;;;;;;;22.33;21.67;;;;;;;;5041186;28;45801;-80
2022/05/03 09:16:55;;;;;;;;;28.67;24.33;;;;;;;;4955902;28;45662;-79
2022/05/03 09:19:26;;;;;;;;;27.00;22.33;;;;;;;;4957442;28;46365;-75
2022/05/03 09:25:33;;;;;;;;;;;;;;;;;;;;;
2022/05/03 09:28:06;;;;;;;;;34.33;23.33;;;;;;;;4972767;28;72692;-80
2022/05/03 09:33:20;;;;;;;;;24.00;22.00;;;;;;;;5032467;28;45847;-78
2022/05/03 09:35:59;;;;;;;;;30.00;22.00;;;;;;;;5049276;28;45765;-77
2022/05/03 09:38:25;;;;;;;;;22.00;21.33;;;;;;;;5052298;28;45894;-80
2022/05/03 09:44:25;;;;;;;;;;;;;;;;;;;;;
2022/05/03 09:50:32;;;;;;;;;21.67;18.67;;;;;;;;4875864;29;45409;-80
2022/05/03 09:56:17;;;;;;;;;25.33;22.33;;;;;;;;4984836;28;45713;-81
2022/05/03 09:58:42;;;;;;;;;20.33;20.33;;;;;;;;4968234;28;45508;-80
2022/05/03 10:01:08;;;;;;;;;19.33;15.67;;;;;;;;4992307;28;47117;-80
2022/05/03 10:03:33;;;;;;;;;23.67;22.33;;;;;;;;4992108;28;45513;-79
2022/05/03 10:05:59;;;;;;;;;21.33;20.00;;;;;;;;4997626;28;45792;-80
2022/05/03 10:08:25;;;;;;;;;18.67;18.67;;;;;;;;5017071;28;45424;-83
2022/05/03 10:11:02;;;;;;;;;17.33;16.00;;;;;;;;5015573;28;45963;-80
2022/05/03 10:13:34;;;;;;;;;13.33;11.33;;;;;;;;5015159;28;45488;-80
2022/05/03 10:25:06;;;;;;;;;;;;;;;;;;;;;
2022/05/03 10:27:52;;;;;;;;;27.67;19.00;;;;;;;;5051594;28;72243;-79
2022/05/03 10:30:28;;;;;;;;;16.00;15.00;;;;;;;;5015332;28;45429;-80
2022/05/03 10:39:54;;;;;;;;;18.33;14.67;;;;;;;;4955445;28;45994;-79
2022/05/03 10:42:46;;;;;;;;;;;;;;;;;;;;;
2022/05/03 10:45:31;;;;;;;;;18.33;14.33;;;;;;;;5048184;28;72678;-77
2022/05/03 10:48:41;;;;;;;;;15.00;15.00;;;;;;;;5047544;28;45985;-77
2022/05/03 10:51:14;;;;;;;;;13.67;12.33;;;;;;;;5048886;28;45490;-78
2022/05/03 10:53:57;;;;;;;;;14.33;14.33;;;;;;;;5049175;28;46040;-78
2022/05/03 10:56:23;;;;;;;;;14.67;14.67;;;;;;;;5033489;28;45568;-78
2022/05/03 10:59:24;;;;;;;;;13.00;13.00;;;;;;;;5062714;28;45999;-78
2022/05/03 11:05:18;;;;;;;;;12.00;11.33;;;;;;;;4964465;28;45563;-80
2022/05/03 11:08:05;;;;;;;;;12.00;10.67;;;;;;;;5056538;28;45807;-84
2022/05/03 11:10:46;;;;;;;;;12.67;12.00;;;;;;;;5043497;28;45760;-81
2022/05/03 11:13:29;;;;;;;;;13.00;9.67;;;;;;;;5055452;28;45475;-82
2022/05/03 11:16:13;;;;;;;;;9.33;9.33;;;;;;;;5049771;28;45843;-81
2022/05/03 11:18:39;;;;;;;;;11.00;10.67;;;;;;;;5048123;28;45853;-82
2022/05/03 11:21:21;;;;;;;;;11.33;9.00;;;;;;;;5044091;28;48275;-85
2022/05/03 11:23:49;;;;;;;;;9.67;9.67;;;;;;;;5051790;28;45513;-78
2022/05/03 11:26:16;;;;;;;;;10.33;9.33;;;;;;;;5048811;28;45482;-78
2022/05/03 11:28:44;;;;;;;;;11.33;11.33;;;;;;;;5047929;28;45779;-79
2022/05/03 11:31:09;;;;;;;;;14.67;12.67;;;;;;;;5051071;28;45625;-81
2022/05/03 11:33:47;;;;;;;;;10.33;10.33;;;;;;;;5037235;28;45532;-79
2022/05/03 11:36:12;;;;;;;;;11.67;8.00;;;;;;;;5037989;28;45744;-81
2022/05/03 11:38:38;;;;;;;;;8.33;8.33;;;;;;;;5056862;28;45482;-84
2022/05/03 11:41:24;;;;;;;;;10.67;8.33;;;;;;;;5061249;28;45449;-84
2022/05/03 11:44:23;;;;;;;;;8.67;7.33;;;;;;;;5058745;28;45965;-80
2022/05/03 11:49:56;;;;;;;;;7.67;5.33;;;;;;;;4981710;28;45501;-80
2022/05/03 11:55:58;;;;;;;;;8.00;8.00;;;;;;;;5056112;28;45450;-81
2022/05/03 11:57:59;;;;;;;;;7.67;7.67;;;;;;;;5050808;28;45612;-79
2022/05/03 12:00:25;;;;;;;;;11.00;6.67;;;;;;;;5051924;28;45439;-83
2022/05/03 12:02:50;;;;;;;;;11.33;10.33;;;;;;;;5034817;28;47448;-80
2022/05/03 12:05:17;;;;;;;;;9.33;8.33;;;;;;;;5029904;28;45461;-79
2022/05/03 12:07:46;;;;;;;;;8.33;8.33;;;;;;;;5035289;28;45412;-80
2022/05/03 12:10:19;;;;;;;;;10.33;8.67;;;;;;;;5023253;28;45899;-79
2022/05/03 12:12:46;;;;;;;;;8.00;5.67;;;;;;;;5031801;28;46846;-79
2022/05/03 12:15:24;;;;;;;;;6.00;6.00;;;;;;;;5057539;28;45340;-83
2022/05/03 12:17:52;;;;;;;;;8.67;5.00;;;;;;;;5035969;28;45678;-81
2022/05/03 12:20:18;;;;;;;;;8.33;8.33;;;;;;;;5062507;28;45840;-80
2022/05/03 12:22:43;;;;;;;;;10.00;10.00;;;;;;;;5062794;28;45906;-80
2022/05/03 12:28:47;;;;;;;;;7.33;5.67;;;;;;;;5025099;28;45364;-80
2022/05/03 12:31:46;;;;;;;;;5.67;5.67;;;;;;;;4998242;28;44957;-82
2022/05/03 12:34:34;;;;;;;;;5.67;5.67;;;;;;;;4959346;28;45525;-84
2022/05/03 12:52:59;;;;;;;;;6.00;6.00;;;;;;;;4951117;28;44964;-80
2022/05/03 12:55:36;;;;;;;;;5.67;5.67;;;;;;;;4947183;28;46725;-82
2022/05/03 13:00:45;;;;;;;;;7.00;6.33;;;;;;;;5051627;28;45569;-81
2022/05/03 13:03:11;;;;;;;;;6.67;3.00;;;;;;;;5041171;28;45950;-80
2022/05/03 13:05:37;;;;;;;;;8.33;5.67;;;;;;;;5047395;28;45747;-79
2022/05/03 13:08:02;;;;;;;;;7.33;5.00;;;;;;;;5049217;28;46685;-80
2022/05/03 13:10:28;;;;;;;;;6.33;5.00;;;;;;;;5049401;28;45403;-79
2022/05/03 13:12:53;;;;;;;;;7.67;7.67;;;;;;;;5048009;28;45422;-81
2022/05/03 13:15:19;;;;;;;;;7.00;7.00;;;;;;;;5045886;28;45492;-80
2022/05/03 13:17:44;;;;;;;;;5.67;5.33;;;;;;;;5048125;28;45425;-81
2022/05/03 13:20:10;;;;;;;;;4.67;3.33;;;;;;;;5052834;28;46531;-82
2022/05/03 13:22:35;;;;;;;;;9.00;8.33;;;;;;;;5053323;28;44875;-81
2022/05/03 13:25:03;;;;;;;;;11.00;9.67;;;;;;;;5053601;28;45469;-81
2022/05/03 13:27:31;;;;;;;;;8.67;7.00;;;;;;;;5048465;28;45489;-81
2022/05/03 13:29:59;;;;;;;;;12.33;10.33;;;;;;;;5046663;28;45808;-80
2022/05/03 13:32:24;;;;;;;;;11.00;9.33;;;;;;;;5046856;28;45403;-78
2022/05/03 13:34:50;;;;;;;;;9.33;8.00;;;;;;;;5038183;28;46704;-82
2022/05/03 13:40:33;;;;;;;;;4.33;4.33;;;;;;;;5027866;28;45587;-81
2022/05/03 13:43:01;;;;;;;;;10.33;9.00;;;;;;;;5039182;28;45340;-79
2022/05/03 13:45:30;;;;;;;;;7.33;7.33;;;;;;;;5050487;28;45728;-78
2022/05/03 13:47:55;;;;;;;;;8.00;6.67;;;;;;;;5051058;28;45528;-82
2022/05/03 13:50:21;;;;;;;;;9.00;9.00;;;;;;;;5055128;28;45380;-81
2022/05/03 13:52:46;;;;;;;;;8.67;8.33;;;;;;;;5053992;28;45399;-81
2022/05/03 13:55:12;;;;;;;;;7.00;7.00;;;;;;;;5049466;28;46011;-82
2022/05/03 13:57:37;;;;;;;;;8.33;8.33;;;;;;;;5051735;28;46132;-80
2022/05/03 14:00:04;;;;;;;;;10.00;7.00;;;;;;;;5044460;28;46097;-79
2022/05/03 14:02:29;;;;;;;;;8.33;4.33;;;;;;;;5053137;28;45943;-79
2022/05/03 14:04:58;;;;;;;;;5.67;5.00;;;;;;;;5051254;28;45581;-80
2022/05/03 14:07:23;;;;;;;;;6.33;5.00;;;;;;;;5041845;28;46010;-81
2022/05/03 14:09:52;;;;;;;;;7.00;5.67;;;;;;;;5054350;28;45459;-82
2022/05/03 14:12:17;;;;;;;;;6.00;6.00;;;;;;;;5055882;28;45351;-81
2022/05/03 14:14:45;;;;;;;;;4.33;4.33;;;;;;;;5052576;28;45955;-81
2022/05/03 14:17:10;;;;;;;;;6.00;5.00;;;;;;;;5050300;28;45676;-81
2022/05/03 14:19:36;;;;;;;;;7.00;5.00;;;;;;;;5048760;28;45569;-82
2022/05/03 14:22:01;;;;;;;;;6.00;6.00;;;;;;;;5047328;28;45465;-82
2022/05/03 14:24:27;;;;;;;;;10.00;8.67;;;;;;;;5053000;28;45700;-81
2022/05/03 14:26:52;;;;;;;;;8.33;8.33;;;;;;;;5047163;28;48257;-79
2022/05/03 14:29:18;;;;;;;;;9.00;7.67;;;;;;;;5052899;28;45450;-81
2022/05/03 14:31:44;;;;;;;;;7.00;5.67;;;;;;;;5053225;28;45971;-82
2022/05/03 14:34:10;;;;;;;;;7.33;6.00;;;;;;;;5034348;28;45892;-82
2022/05/03 14:36:36;;;;;;;;;9.33;7.67;;;;;;;;5039295;28;47954;-83
2022/05/03 14:39:02;;;;;;;;;6.67;6.67;;;;;;;;5050777;28;45343;-82
2022/05/03 14:41:28;;;;;;;;;7.00;7.00;;;;;;;;5056267;28;45789;-81
2022/05/03 14:43:54;;;;;;;;;6.00;6.00;;;;;;;;5053347;28;45349;-81
2022/05/03 14:46:19;;;;;;;;;8.00;7.67;;;;;;;;5054614;28;45395;-82
2022/05/03 14:48:45;;;;;;;;;8.33;8.00;;;;;;;;5042103;28;45467;-81
2022/05/03 14:51:11;;;;;;;;;8.67;6.67;;;;;;;;5051145;28;45454;-80
2022/05/03 14:53:36;;;;;;;;;7.67;7.00;;;;;;;;5051220;28;45810;-81
2022/05/03 15:04:13;;;;;;;;;6.00;5.00;;;;;;;;5058248;28;45833;-80
2022/05/03 15:06:42;;;;;;;;;4.33;4.33;;;;;;;;5059230;28;45540;-79
2022/05/03 15:09:09;;;;;;;;;5.00;5.00;;;;;;;;5061592;28;45761;-80
2022/05/03 15:11:35;;;;;;;;;5.67;5.67;;;;;;;;5058402;28;45696;-81
2022/05/03 15:14:02;;;;;;;;;5.00;5.00;;;;;;;;5061362;28;45417;-80
2022/05/03 15:16:27;;;;;;;;;5.00;5.00;;;;;;;;5045071;28;45599;-81
2022/05/03 15:18:52;;;;;;;;;5.00;5.00;;;;;;;;5053341;28;45543;-82
2022/05/03 15:21:21;;;;;;;;;4.33;4.33;;;;;;;;5045717;28;45424;-83
2022/05/03 15:26:32;;;;;;;;;4.33;3.33;;;;;;;;5056627;28;45723;-79
2022/05/03 15:29:00;;;;;;;;;7.00;7.00;;;;;;;;5049170;28;45858;-80
2022/05/03 15:31:39;;;;;;;;;5.00;5.00;;;;;;;;5054266;28;45790;-80
2022/05/03 15:34:04;;;;;;;;;5.00;5.00;;;;;;;;5031484;28;45620;-80
2022/05/03 15:36:29;;;;;;;;;5.33;5.00;;;;;;;;5047376;28;45623;-78
2022/05/03 15:38:56;;;;;;;;;3.00;3.00;;;;;;;;5049940;28;45480;-82
2022/05/03 15:41:24;;;;;;;;;4.00;4.00;;;;;;;;5050630;28;45379;-78
2022/05/03 15:43:49;;;;;;;;;5.67;4.00;;;;;;;;5042352;28;45145;-78
2022/05/03 15:46:15;;;;;;;;;4.67;3.67;;;;;;;;5037165;28;47531;-81
2022/05/03 15:48:41;;;;;;;;;4.00;4.00;;;;;;;;5041652;28;45400;-81
2022/05/03 15:51:07;;;;;;;;;3.67;3.00;;;;;;;;5054706;28;45800;-78
2022/05/03 15:53:32;;;;;;;;;5.00;4.00;;;;;;;;5045236;28;45683;-84
2022/05/03 15:55:58;;;;;;;;;9.33;6.00;;;;;;;;5029257;28;46794;-78
2022/05/03 15:58:23;;;;;;;;;7.00;7.00;;;;;;;;5032124;28;45474;-79
2022/05/03 16:00:53;;;;;;;;;8.67;8.00;;;;;;;;5043403;28;45799;-81
2022/05/03 16:03:20;;;;;;;;;6.67;6.33;;;;;;;;5037686;28;45820;-80
2022/05/03 16:05:45;;;;;;;;;6.33;6.33;;;;;;;;5050199;28;45761;-78
2022/05/03 16:08:12;;;;;;;;;6.33;5.00;;;;;;;;5052145;28;45410;-80
2022/05/03 16:10:39;;;;;;;;;11.33;10.00;;;;;;;;5035522;28;45603;-78
2022/05/03 16:13:05;;;;;;;;;5.33;5.33;;;;;;;;5054159;28;45676;-77
2022/05/03 16:15:32;;;;;;;;;5.67;5.67;;;;;;;;5032938;28;46992;-79
2022/05/03 16:17:58;;;;;;;;;6.33;6.33;;;;;;;;5053931;28;45964;-79
2022/05/03 16:20:23;;;;;;;;;6.67;6.67;;;;;;;;5050882;28;45513;-78
2022/05/03 16:22:48;;;;;;;;;6.00;6.00;;;;;;;;5047229;28;45608;-79
2022/05/03 16:25:15;;;;;;;;;6.00;5.33;;;;;;;;5040801;28;46972;-81
2022/05/03 16:27:41;;;;;;;;;11.67;9.33;;;;;;;;5056271;28;45814;-82
2022/05/03 16:30:07;;;;;;;;;8.67;7.67;;;;;;;;5039136;28;45556;-81
2022/05/03 16:32:32;;;;;;;;;10.67;8.67;;;;;;;;5034433;28;45573;-79
2022/05/03 16:34:58;;;;;;;;;9.33;9.33;;;;;;;;5028458;28;46866;-80
2022/05/03 16:42:54;;;;;;;;;11.00;11.00;;;;;;;;5054427;28;45783;-78
2022/05/03 16:45:20;;;;;;;;;10.00;9.67;;;;;;;;5029854;28;47837;-79
2022/05/03 16:47:52;;;;;;;;;8.67;8.67;;;;;;;;5038965;28;45467;-78
2022/05/03 16:50:18;;;;;;;;;9.33;9.33;;;;;;;;5054366;28;45793;-80
2022/05/03 16:52:44;;;;;;;;;10.33;10.33;;;;;;;;5056596;28;44834;-80
2022/05/03 16:55:22;;;;;;;;;13.00;11.67;;;;;;;;5061896;28;45654;-89
2022/05/03 16:57:48;;;;;;;;;15.00;13.00;;;;;;;;5044173;28;45890;-80
2022/05/03 17:00:13;;;;;;;;;13.00;10.67;;;;;;;;5044811;28;45568;-79
2022/05/03 17:02:39;;;;;;;;;10.33;10.33;;;;;;;;5061883;28;45629;-80